createdAt,value
2022-09-10T00:01:20.275Z,18.50
2022-09-10T00:03:49.968Z,18.50
2022-09-10T00:06:19.485Z,18.50
2022-09-10T00:08:49.209Z,18.50
2022-09-10T00:11:17.307Z,18.50
2022-09-10T00:13:45.516Z,18.50
2022-09-10T00:16:18.068Z,18.50
2022-09-10T00:18:47.596Z,18.50
2022-09-10T00:21:17.965Z,18.60
2022-09-10T00:23:46.204Z,18.60
2022-09-10T00:26:17.480Z,18.50
2022-09-10T00:28:45.596Z,18.50
2022-09-10T00:31:15.595Z,18.50
2022-09-10T00:33:44.824Z,18.50
2022-09-10T00:36:17.420Z,18.40
2022-09-10T00:38:45.353Z,18.40
2022-09-10T00:41:14.525Z,18.40
2022-09-10T00:43:52.760Z,18.40
2022-09-10T00:46:30.272Z,18.30
2022-09-10T00:49:01.198Z,18.30
2022-09-10T00:51:32.913Z,18.30
2022-09-10T00:54:01.990Z,18.30
2022-09-10T00:56:31.026Z,18.30
2022-09-10T00:58:59.242Z,18.30
2022-09-10T01:01:28.731Z,18.40
2022-09-10T01:03:57.495Z,18.30
2022-09-10T01:06:25.391Z,18.30
2022-09-10T01:08:53.499Z,18.20
2022-09-10T01:11:45.933Z,18.20
2022-09-10T01:14:39.543Z,18.10
2022-09-10T01:17:17.073Z,18.10
2022-09-10T01:20:14.142Z,18.00
2022-09-10T01:23:03.997Z,18.00
2022-09-10T01:25:44.513Z,18.00
2022-09-10T01:28:19.706Z,18.00
2022-09-10T01:30:55.111Z,18.00
2022-09-10T01:33:32.090Z,17.90
2022-09-10T01:36:06.848Z,17.90
2022-09-10T01:38:38.458Z,17.90
2022-09-10T01:41:07.472Z,17.90
2022-09-10T01:43:44.368Z,17.90
2022-09-10T01:46:26.040Z,17.90
2022-09-10T01:49:10.103Z,17.90
2022-09-10T01:51:53.749Z,17.90
2022-09-10T01:54:38.165Z,17.90
2022-09-10T01:57:17.126Z,17.90
2022-09-10T01:59:53.713Z,17.90
2022-09-10T02:02:26.867Z,17.90
2022-09-10T02:04:55.840Z,17.90
2022-09-10T02:07:26.471Z,17.90
2022-09-10T02:09:55.709Z,17.90
2022-09-10T02:12:25.011Z,17.90
2022-09-10T02:15:00.056Z,17.90
2022-09-10T02:17:38.410Z,17.90
2022-09-10T02:20:10.101Z,17.90
2022-09-10T02:22:40.417Z,17.80
2022-09-10T02:25:10.265Z,17.80
2022-09-10T02:27:40.473Z,17.80
2022-09-10T02:30:11.206Z,17.80
2022-09-10T02:32:39.097Z,17.80
2022-09-10T02:35:08.386Z,17.80
2022-09-10T02:37:36.579Z,17.80
2022-09-10T02:40:05.776Z,17.80
2022-09-10T02:42:34.100Z,17.80
2022-09-10T02:45:03.011Z,17.90
2022-09-10T02:47:32.315Z,17.90
2022-09-10T02:50:01.987Z,17.90
2022-09-10T02:52:30.158Z,17.90
2022-09-10T02:54:58.097Z,17.90
2022-09-10T02:57:26.024Z,17.90
2022-09-10T02:59:56.379Z,17.90
2022-09-10T03:02:25.686Z,17.90
2022-09-10T03:04:56.730Z,17.90
2022-09-10T03:07:26.119Z,17.90
2022-09-10T03:09:54.289Z,18.00
2022-09-10T03:12:22.209Z,18.00
2022-09-10T03:14:50.423Z,18.00
2022-09-10T03:17:18.968Z,18.00
2022-09-10T03:19:48.219Z,18.00
2022-09-10T03:22:17.507Z,18.00
2022-09-10T03:24:47.118Z,18.00
2022-09-10T03:27:16.333Z,18.00
2022-09-10T03:29:45.247Z,18.00
2022-09-10T03:32:14.841Z,18.00
2022-09-10T03:34:42.971Z,18.00
2022-09-10T03:37:11.037Z,18.00
2022-09-10T03:39:40.420Z,18.00
2022-09-10T03:42:08.596Z,18.00
2022-09-10T03:44:36.519Z,18.00
2022-09-10T03:47:04.948Z,18.00
2022-09-10T03:49:33.581Z,18.00
2022-09-10T03:52:02.681Z,18.10
2022-09-10T03:54:34.420Z,18.10
2022-09-10T03:57:03.702Z,18.10
2022-09-10T03:59:32.784Z,18.10
2022-09-10T04:02:03.103Z,18.10
2022-09-10T04:04:32.311Z,18.10
2022-09-10T04:07:01.005Z,18.10
2022-09-10T04:09:28.939Z,18.10
2022-09-10T04:11:56.884Z,18.10
2022-09-10T04:14:27.053Z,18.10
2022-09-10T04:16:55.568Z,18.10
2022-09-10T04:19:23.879Z,18.10
2022-09-10T04:21:52.952Z,18.10
2022-09-10T04:24:21.130Z,18.10
2022-09-10T04:26:49.223Z,18.10
2022-09-10T04:29:19.134Z,18.10
2022-09-10T04:31:48.755Z,18.10
2022-09-10T04:34:19.176Z,18.10
2022-09-10T04:36:47.280Z,18.10
2022-09-10T04:39:15.433Z,18.10
2022-09-10T04:41:43.901Z,18.00
2022-09-10T04:44:12.017Z,18.00
2022-09-10T04:46:41.293Z,18.00
2022-09-10T04:49:13.072Z,18.00
2022-09-10T04:51:40.983Z,18.00
2022-09-10T04:54:08.958Z,18.00
2022-09-10T04:56:38.772Z,17.90
2022-09-10T04:59:06.781Z,17.90
2022-09-10T05:01:37.975Z,18.00
2022-09-10T05:04:06.607Z,18.00
2022-09-10T05:06:38.839Z,18.00
2022-09-10T05:09:11.506Z,18.00
2022-09-10T05:11:40.529Z,18.00
2022-09-10T05:14:08.499Z,18.00
2022-09-10T05:16:37.030Z,18.00
2022-09-10T05:19:06.221Z,18.00
2022-09-10T05:21:42.509Z,18.00
2022-09-10T05:24:10.709Z,18.00
2022-09-10T05:26:39.188Z,18.00
2022-09-10T05:29:07.515Z,18.00
2022-09-10T05:31:35.789Z,18.00
2022-09-10T05:34:04.616Z,18.00
2022-09-10T05:36:33.230Z,18.00
2022-09-10T05:39:03.597Z,18.10
2022-09-10T05:41:34.614Z,18.10
2022-09-10T05:44:03.077Z,18.10
2022-09-10T05:46:31.126Z,18.10
2022-09-10T05:49:03.562Z,18.10
2022-09-10T05:51:31.768Z,18.10
2022-09-10T05:54:05.338Z,18.10
2022-09-10T05:56:34.723Z,18.10
2022-09-10T05:59:03.957Z,18.20
2022-09-10T06:01:33.159Z,18.10
2022-09-10T06:04:03.129Z,18.20
2022-09-10T06:06:32.269Z,18.10
2022-09-10T06:09:08.066Z,18.10
2022-09-10T06:11:45.566Z,18.20
2022-09-10T06:14:14.881Z,18.20
2022-09-10T06:16:43.190Z,18.20
2022-09-10T06:19:12.322Z,18.20
2022-09-10T06:21:40.296Z,18.20
2022-09-10T06:24:09.907Z,18.20
2022-09-10T06:26:39.544Z,18.20
2022-09-10T06:29:12.439Z,18.20
2022-09-10T06:31:42.677Z,18.20
2022-09-10T06:34:11.487Z,18.30
2022-09-10T06:36:39.637Z,18.30
2022-09-10T06:39:09.787Z,18.30
2022-09-10T06:41:49.600Z,18.30
2022-09-10T06:44:36.345Z,18.30
2022-09-10T06:50:10.588Z,18.40
2022-09-10T06:52:40.852Z,18.40
2022-09-10T06:55:12.992Z,18.40
2022-09-10T06:57:44.343Z,18.40
2022-09-10T07:00:15.205Z,18.40
2022-09-10T07:02:46.181Z,18.40
2022-09-10T07:05:14.224Z,18.40
2022-09-10T07:07:43.434Z,18.40
2022-09-10T07:10:12.973Z,18.40
2022-09-10T07:12:40.888Z,18.40
2022-09-10T07:15:11.332Z,18.40
2022-09-10T07:17:39.428Z,18.40
2022-09-10T07:20:09.539Z,18.40
2022-09-10T07:22:46.985Z,18.40
2022-09-10T07:25:17.665Z,18.40
2022-09-10T07:28:07.057Z,18.50
2022-09-10T07:30:37.729Z,18.50
2022-09-10T07:33:05.880Z,18.50
2022-09-10T07:35:35.718Z,18.60
2022-09-10T07:38:04.962Z,18.60
2022-09-10T07:40:35.998Z,18.60
2022-09-10T07:43:04.045Z,18.60
2022-09-10T07:45:32.083Z,18.70
2022-09-10T07:48:03.703Z,18.70
2022-09-10T07:50:36.356Z,18.70
2022-09-10T07:53:05.372Z,18.70
2022-09-10T07:55:34.786Z,18.70
2022-09-10T07:58:02.937Z,18.70
2022-09-10T08:00:32.204Z,18.70
2022-09-10T08:03:06.002Z,18.60
2022-09-10T08:05:34.923Z,18.60
2022-09-10T08:08:03.310Z,18.60
2022-09-10T08:10:31.320Z,18.60
2022-09-10T08:13:01.256Z,18.50
2022-09-10T08:15:29.189Z,18.50
2022-09-10T08:18:00.786Z,18.40
2022-09-10T08:20:29.525Z,18.40
2022-09-10T08:22:59.668Z,18.40
2022-09-10T08:25:27.607Z,18.30
2022-09-10T08:27:57.731Z,18.30
2022-09-10T08:30:28.904Z,18.30
2022-09-10T08:32:57.167Z,18.20
2022-09-10T08:35:25.170Z,18.20
2022-09-10T08:37:53.492Z,18.20
2022-09-10T08:40:23.696Z,18.20
2022-09-10T08:42:53.118Z,18.20
2022-09-10T08:45:27.282Z,18.10
2022-09-10T08:48:01.340Z,18.10
2022-09-10T08:50:40.117Z,18.10
2022-09-10T08:53:25.888Z,18.20
2022-09-10T08:55:57.711Z,18.20
2022-09-10T08:58:31.677Z,18.20
2022-09-10T09:01:04.843Z,18.30
2022-09-10T09:03:37.798Z,18.30
2022-09-10T09:06:08.492Z,18.30
2022-09-10T09:08:48.349Z,18.30
2022-09-10T09:11:30.072Z,18.30
2022-09-10T09:14:14.560Z,18.40
2022-09-10T09:17:02.033Z,18.50
2022-09-10T09:19:34.725Z,18.60
2022-09-10T09:22:12.503Z,18.60
2022-09-10T09:24:54.812Z,18.70
2022-09-10T09:27:22.758Z,18.80
2022-09-10T09:29:57.791Z,18.80
2022-09-10T09:32:26.945Z,18.80
2022-09-10T09:34:58.275Z,18.90
2022-09-10T09:37:29.379Z,18.90
2022-09-10T09:40:08.811Z,18.90
2022-09-10T09:42:43.639Z,19.00
2022-09-10T09:45:22.192Z,19.00
2022-09-10T09:47:51.116Z,19.10
2022-09-10T09:50:20.495Z,19.10
2022-09-10T09:52:48.936Z,19.10
2022-09-10T09:55:26.584Z,19.20
2022-09-10T09:58:28.699Z,19.10
2022-09-10T10:01:12.960Z,19.20
2022-09-10T10:03:52.253Z,19.20
2022-09-10T10:06:22.880Z,19.20
2022-09-10T10:08:57.930Z,19.30
2022-09-10T10:11:48.292Z,19.30
2022-09-10T10:14:41.546Z,19.40
2022-09-10T10:17:34.360Z,19.50
2022-09-10T10:20:08.954Z,19.60
2022-09-10T10:22:38.495Z,19.50
2022-09-10T10:25:28.324Z,19.50
2022-09-10T10:27:56.456Z,19.60
2022-09-10T10:30:25.422Z,19.60
2022-09-10T10:32:57.074Z,19.70
2022-09-10T10:35:48.139Z,19.80
2022-09-10T10:38:31.057Z,19.90
2022-09-10T10:41:33.232Z,19.80
2022-09-10T10:44:14.830Z,19.80
2022-09-10T10:46:50.829Z,19.70
2022-09-10T10:49:31.786Z,19.70
2022-09-10T10:52:07.728Z,19.60
2022-09-10T10:54:59.687Z,19.60
2022-09-10T10:57:34.519Z,19.70
2022-09-10T11:00:07.480Z,19.70
2022-09-10T11:02:41.654Z,19.70
2022-09-10T11:05:25.724Z,19.80
2022-09-10T11:07:56.403Z,19.80
2022-09-10T11:10:29.563Z,19.90
2022-09-10T11:13:06.712Z,19.90
2022-09-10T11:15:43.109Z,20.00
2022-09-10T11:18:19.957Z,20.10
2022-09-10T11:21:00.130Z,20.20
2022-09-10T11:23:32.950Z,20.30
2022-09-10T11:26:07.338Z,20.40
2022-09-10T11:28:40.817Z,20.40
2022-09-10T11:31:15.051Z,20.40
2022-09-10T11:33:53.260Z,20.40
2022-09-10T11:36:28.404Z,20.50
2022-09-10T11:39:07.650Z,20.40
2022-09-10T11:41:42.121Z,20.40
2022-09-10T11:44:32.364Z,20.30
2022-09-10T11:47:07.857Z,20.30
2022-09-10T11:49:44.433Z,20.20
2022-09-10T11:52:13.668Z,20.20
2022-09-10T11:54:42.279Z,20.20
2022-09-10T11:57:17.124Z,20.20
2022-09-10T12:00:15.703Z,20.30
2022-09-10T12:03:26.593Z,20.30
2022-09-10T12:06:01.079Z,20.30
2022-09-10T12:08:56.895Z,20.40
2022-09-10T12:11:33.558Z,20.40
2022-09-10T12:14:07.334Z,20.50
2022-09-10T12:16:39.195Z,20.50
2022-09-10T12:19:16.485Z,20.50
2022-09-10T12:21:50.652Z,20.50
2022-09-10T12:24:31.056Z,20.50
2022-09-10T12:27:01.514Z,20.50
2022-09-10T12:29:35.657Z,20.40
2022-09-10T12:32:36.859Z,20.40
2022-09-10T12:35:47.716Z,20.50
2022-09-10T12:38:47.510Z,20.50
2022-09-10T12:41:57.528Z,20.50
2022-09-10T12:44:47.537Z,20.50
2022-09-10T12:47:40.052Z,20.40
2022-09-10T12:50:20.464Z,20.30
2022-09-10T12:53:13.250Z,20.20
2022-09-10T12:55:53.661Z,20.10
2022-09-10T12:58:27.803Z,20.00
2022-09-10T13:01:10.801Z,19.90
2022-09-10T13:03:48.156Z,19.80
2022-09-10T13:06:16.122Z,19.80
2022-09-10T13:08:47.610Z,19.80
2022-09-10T13:11:20.604Z,19.90
2022-09-10T13:14:00.393Z,19.90
2022-09-10T13:16:40.206Z,20.00
2022-09-10T13:20:00.955Z,20.00
2022-09-10T13:22:36.146Z,20.10
2022-09-10T13:25:25.267Z,20.10
2022-09-10T13:27:53.448Z,20.10
2022-09-10T13:30:24.120Z,20.20
2022-09-10T13:32:55.322Z,20.20
2022-09-10T13:36:05.589Z,20.20
2022-09-10T13:39:03.051Z,20.30
2022-09-10T13:42:07.433Z,20.30
2022-09-10T13:44:49.676Z,20.30
2022-09-10T13:47:25.528Z,20.30
2022-09-10T13:49:57.266Z,20.20
2022-09-10T13:52:31.793Z,20.20
2022-09-10T13:55:01.779Z,20.20
2022-09-10T13:57:32.681Z,20.10
2022-09-10T14:00:08.563Z,20.10
2022-09-10T14:02:44.993Z,20.20
2022-09-10T14:05:30.033Z,20.20
2022-09-10T14:08:02.702Z,20.20
2022-09-10T14:10:31.995Z,20.20
2022-09-10T14:13:00.671Z,20.30
2022-09-10T14:15:35.266Z,20.30
2022-09-10T14:18:05.275Z,20.30
2022-09-10T14:20:35.622Z,20.30
2022-09-10T14:23:06.757Z,20.30
2022-09-10T14:25:37.316Z,20.20
2022-09-10T14:28:24.876Z,20.20
2022-09-10T14:31:14.827Z,20.20
2022-09-10T14:33:44.241Z,20.30
2022-09-10T14:36:17.434Z,20.40
2022-09-10T14:38:54.363Z,20.40
2022-09-10T14:41:25.014Z,20.40
2022-09-10T14:44:15.437Z,20.40
2022-09-10T14:46:53.102Z,20.40
2022-09-10T14:49:27.850Z,20.40
2022-09-10T14:51:57.184Z,20.40
2022-09-10T14:54:25.455Z,20.40
2022-09-10T14:56:54.980Z,20.50
2022-09-10T14:59:29.675Z,20.50
2022-09-10T15:01:58.475Z,20.50
2022-09-10T15:04:30.213Z,20.50
2022-09-10T15:06:59.707Z,20.50
2022-09-10T15:09:29.060Z,20.50
2022-09-10T15:12:01.759Z,20.50
2022-09-10T15:14:30.548Z,20.40
2022-09-10T15:16:58.506Z,20.50
2022-09-10T15:19:28.873Z,20.50
2022-09-10T15:21:57.214Z,20.50
2022-09-10T15:24:26.158Z,20.50
2022-09-10T15:26:56.444Z,20.50
2022-09-10T15:29:26.043Z,20.50
2022-09-10T15:31:59.322Z,20.50
2022-09-10T15:34:28.649Z,20.50
2022-09-10T15:36:56.602Z,20.50
2022-09-10T15:39:24.519Z,20.50
2022-09-10T15:41:52.619Z,20.40
2022-09-10T15:44:24.303Z,20.40
2022-09-10T15:46:52.619Z,20.40
2022-09-10T15:49:20.626Z,20.50
2022-09-10T15:51:49.907Z,20.50
2022-09-10T15:54:17.851Z,20.50
2022-09-10T15:56:46.011Z,20.50
2022-09-10T15:59:16.487Z,20.60
2022-09-10T16:01:44.572Z,20.60
2022-09-10T16:04:12.550Z,20.60
2022-09-10T16:06:40.971Z,20.70
2022-09-10T16:09:12.449Z,20.70
2022-09-10T16:11:42.280Z,20.70
2022-09-10T16:14:13.207Z,20.70
2022-09-10T16:16:41.836Z,20.70
2022-09-10T16:19:11.815Z,20.70
2022-09-10T16:21:40.110Z,20.80
2022-09-10T16:24:08.576Z,20.80
2022-09-10T16:26:39.566Z,20.80
2022-09-10T16:29:12.994Z,20.80
2022-09-10T16:31:41.615Z,20.80
2022-09-10T16:34:13.432Z,20.80
2022-09-10T16:36:41.373Z,20.70
2022-09-10T16:39:12.445Z,20.60
2022-09-10T16:41:43.279Z,20.60
2022-09-10T16:44:12.101Z,20.50
2022-09-10T16:46:40.308Z,20.50
2022-09-10T16:49:12.439Z,20.40
2022-09-10T16:51:40.888Z,20.40
2022-09-10T16:54:09.258Z,20.30
2022-09-10T16:56:39.627Z,20.20
2022-09-10T16:59:14.815Z,20.20
2022-09-10T17:01:44.321Z,20.10
2022-09-10T17:04:18.823Z,20.10
2022-09-10T17:06:48.148Z,20.00
2022-09-10T17:09:16.388Z,20.00
2022-09-10T17:11:44.302Z,20.00
2022-09-10T17:14:13.536Z,20.00
2022-09-10T17:16:43.524Z,20.00
2022-09-10T17:19:12.671Z,20.00
2022-09-10T17:21:42.716Z,19.90
2022-09-10T17:24:12.771Z,19.90
2022-09-10T17:26:41.909Z,19.90
2022-09-10T17:29:12.596Z,19.90
2022-09-10T17:31:42.780Z,19.90
2022-09-10T17:34:12.343Z,19.90
2022-09-10T17:36:41.263Z,19.90
2022-09-10T17:39:09.387Z,19.90
2022-09-10T17:41:37.459Z,19.90
2022-09-10T17:44:05.342Z,19.80
2022-09-10T17:46:35.147Z,19.80
2022-09-10T17:49:05.486Z,19.70
2022-09-10T17:51:35.600Z,19.70
2022-09-10T17:54:03.833Z,19.60
2022-09-10T17:56:32.195Z,19.50
2022-09-10T17:59:02.656Z,19.50
2022-09-10T18:01:32.690Z,19.40
2022-09-10T18:04:01.078Z,19.30
2022-09-10T18:06:30.506Z,19.20
2022-09-10T18:09:00.282Z,19.20
2022-09-10T18:11:30.314Z,19.20
2022-09-10T18:14:00.395Z,19.10
2022-09-10T18:16:31.122Z,19.10
2022-09-10T18:19:01.393Z,19.00
2022-09-10T18:21:32.861Z,19.00
2022-09-10T18:24:02.385Z,19.00
2022-09-10T18:26:32.051Z,18.90
2022-09-10T18:29:02.783Z,18.90
2022-09-10T18:31:32.695Z,18.90
2022-09-10T18:34:01.715Z,18.80
2022-09-10T18:36:31.582Z,18.80
2022-09-10T18:39:02.835Z,18.70
2022-09-10T18:41:32.787Z,18.70
2022-09-10T18:44:04.052Z,18.60
2022-09-10T18:46:33.223Z,18.60
2022-09-10T18:49:02.319Z,18.60
2022-09-10T18:51:31.903Z,18.50
2022-09-10T18:54:01.328Z,18.40
2022-09-10T18:56:31.716Z,18.30
2022-09-10T18:59:01.461Z,18.30
2022-09-10T19:01:30.968Z,18.30
2022-09-10T19:03:59.150Z,18.40
2022-09-10T19:06:28.775Z,18.40
2022-09-10T19:09:00.649Z,18.40
2022-09-10T19:11:32.974Z,18.40
2022-09-10T19:14:02.298Z,18.40
2022-09-10T19:16:32.480Z,18.50
2022-09-10T19:19:02.275Z,18.50
2022-09-10T19:21:32.796Z,18.50
2022-09-10T19:24:03.167Z,18.50
2022-09-10T19:26:32.891Z,18.50
2022-09-10T19:29:02.402Z,18.50
2022-09-10T19:31:32.586Z,18.60
2022-09-10T19:34:02.987Z,18.60
2022-09-10T19:36:34.079Z,18.60
2022-09-10T19:39:05.115Z,18.60
2022-09-10T19:41:33.987Z,18.60
2022-09-10T19:44:02.498Z,18.60
2022-09-10T19:46:31.031Z,18.60
2022-09-10T19:49:00.699Z,18.60
2022-09-10T19:51:31.131Z,18.60
2022-09-10T19:54:00.369Z,18.60
2022-09-10T19:56:32.203Z,18.50
2022-09-10T19:59:02.512Z,18.50
2022-09-10T20:01:32.434Z,18.50
2022-09-10T20:04:02.048Z,18.50
2022-09-10T20:06:30.652Z,18.50
2022-09-10T20:08:59.167Z,18.50
2022-09-10T20:11:31.335Z,18.50
2022-09-10T20:14:01.339Z,18.40
2022-09-10T20:16:29.932Z,18.40
2022-09-10T20:18:58.199Z,18.40
2022-09-10T20:21:27.935Z,18.40
2022-09-10T20:23:56.716Z,18.40
2022-09-10T20:26:26.115Z,18.40
2022-09-10T20:28:57.883Z,18.40
2022-09-10T20:31:27.594Z,18.40
2022-09-10T20:33:57.375Z,18.40
2022-09-10T20:36:26.428Z,18.40
2022-09-10T20:38:54.890Z,18.40
2022-09-10T20:41:23.529Z,18.40
2022-09-10T20:43:52.861Z,18.40
2022-09-10T20:46:23.564Z,18.40
2022-09-10T20:48:52.713Z,18.30
2022-09-10T20:51:21.475Z,18.40
2022-09-10T20:53:49.714Z,18.30
2022-09-10T20:56:19.248Z,18.30
2022-09-10T20:58:48.482Z,18.30
2022-09-10T21:01:18.871Z,18.30
2022-09-10T21:03:50.088Z,18.20
2022-09-10T21:06:20.420Z,18.20
2022-09-10T21:08:49.320Z,18.20
2022-09-10T21:11:18.915Z,18.20
2022-09-10T21:13:48.277Z,18.20
2022-09-10T21:16:18.946Z,18.20
2022-09-10T21:18:54.278Z,18.20
2022-09-10T21:21:25.336Z,18.20
2022-09-10T21:23:54.442Z,18.30
2022-09-10T21:26:25.092Z,18.30
2022-09-10T21:28:54.186Z,18.30
2022-09-10T21:31:22.472Z,18.20
2022-09-10T21:33:52.202Z,18.20
2022-09-10T21:36:21.551Z,18.20
2022-09-10T21:38:50.446Z,18.20
2022-09-10T21:41:21.485Z,18.20
2022-09-10T21:43:49.381Z,18.20
2022-09-10T21:46:17.302Z,18.20
2022-09-10T21:48:45.338Z,18.20
2022-09-10T21:51:16.267Z,18.20
2022-09-10T21:53:45.466Z,18.20
2022-09-10T21:56:14.997Z,18.10
2022-09-10T21:58:44.672Z,18.10
2022-09-10T22:01:13.778Z,18.10
2022-09-10T22:03:42.148Z,18.10
2022-09-10T22:06:12.882Z,18.10
2022-09-10T22:08:44.099Z,18.10
2022-09-10T22:11:15.312Z,18.20
2022-09-10T22:13:43.769Z,18.20
2022-09-10T22:16:13.232Z,18.20
2022-09-10T22:18:41.574Z,18.20
2022-09-10T22:21:10.131Z,18.20
2022-09-10T22:23:39.741Z,18.20
2022-09-10T22:26:10.629Z,18.20
2022-09-10T22:28:39.082Z,18.20
2022-09-10T22:31:12.178Z,18.20
2022-09-10T22:33:42.006Z,18.20
2022-09-10T22:36:15.082Z,18.20
2022-09-10T22:38:43.809Z,18.20
2022-09-10T22:41:14.176Z,18.20
2022-09-10T22:43:42.773Z,18.30
2022-09-10T22:46:11.956Z,18.30
2022-09-10T22:48:42.433Z,18.20
2022-09-10T22:51:12.533Z,18.20
2022-09-10T22:53:41.842Z,18.20
2022-09-10T22:56:12.063Z,18.20
2022-09-10T22:58:41.072Z,18.20
2022-09-10T23:01:10.879Z,18.20
2022-09-10T23:03:39.428Z,18.20
2022-09-10T23:06:09.600Z,18.20
2022-09-10T23:08:38.036Z,18.20
2022-09-10T23:11:15.194Z,18.10
2022-09-10T23:13:44.052Z,18.10
2022-09-10T23:16:13.809Z,18.10
2022-09-10T23:18:43.550Z,18.10
2022-09-10T23:21:11.888Z,18.10
2022-09-10T23:23:39.817Z,18.10
2022-09-10T23:26:09.368Z,18.10
2022-09-10T23:28:39.140Z,18.10
2022-09-10T23:31:09.270Z,18.10
2022-09-10T23:33:37.472Z,18.10
2022-09-10T23:36:05.409Z,18.10
2022-09-10T23:38:35.530Z,18.10
2022-09-10T23:41:04.375Z,18.10
2022-09-10T23:43:32.848Z,18.10
2022-09-10T23:46:02.258Z,18.00
2022-09-10T23:48:30.615Z,18.00
2022-09-10T23:50:58.682Z,18.00
2022-09-10T23:53:26.649Z,18.00
2022-09-10T23:55:54.763Z,18.00
2022-09-10T23:58:23.153Z,18.00
